Clark, Texas
Current Conditions -  °F | °C
As of 8:15 PM on Friday 28 Nov 2014 (Local Time) from K6R3 Reporting Station
Clear Clear  
Wind Chill: 14°   Ceiling: Unl
Heat Index: 14°   Visibility: 10mi
Dew Point: 13°   Wind: 3mph
Humidity: 94%   Direction: 160°SSE
Pressure: 30.17"   Gusts: NA
Location:  30.2945°N, 94.9711°W
Report Text: K6R3 290215Z AUTO 16003KT 10SM CLR 14/13 A3017 RMK AO2 T01400130
Loading
Personal Weather Stations






























Interactive Weather Map New forecast layout! Learn more

10-Day Weather Forecast

Advertisements
Track Severe Weather on mobile